createdAt,value
2019-01-17T00:00:46.483Z,26.50
2019-01-17T00:03:28.593Z,28.27
2019-01-17T00:05:58.815Z,28.23
2019-01-17T00:08:29.083Z,28.47
2019-01-17T00:11:15.533Z,28.03
2019-01-17T00:13:51.486Z,27.33
2019-01-17T00:16:21.721Z,27.27
2019-01-17T00:19:03.768Z,26.87
2019-01-17T00:21:37.979Z,26.77
2019-01-17T00:24:09.768Z,28.10
2019-01-17T00:26:42.696Z,27.40
2019-01-17T00:29:22.970Z,40.07
2019-01-17T00:31:53.190Z,32.17
2019-01-17T00:34:26.101Z,33.17
2019-01-17T00:37:05.190Z,31.47
2019-01-17T00:39:51.687Z,33.93
2019-01-17T00:42:24.943Z,31.20
2019-01-17T00:45:08.713Z,32.03
2019-01-17T00:47:44.806Z,32.53
2019-01-17T00:50:15.092Z,33.10
2019-01-17T00:52:45.399Z,32.00
2019-01-17T00:55:18.735Z,34.97
2019-01-17T00:58:05.138Z,33.23
2019-01-17T01:00:54.134Z,33.17
2019-01-17T01:03:27.354Z,32.97
2019-01-17T01:05:57.606Z,32.70
2019-01-17T01:08:39.826Z,34.20
2019-01-17T01:11:12.644Z,32.33
2019-01-17T01:13:42.867Z,33.73
2019-01-17T01:16:13.355Z,34.97
2019-01-17T01:18:46.589Z,35.47
2019-01-17T01:21:19.966Z,36.93
2019-01-17T01:24:06.315Z,38.23
2019-01-17T01:26:40.349Z,40.50
2019-01-17T01:29:13.314Z,36.80
2019-01-17T01:31:49.499Z,38.57
2019-01-17T01:34:36.138Z,34.60
2019-01-17T01:37:14.983Z,35.63
2019-01-17T01:39:45.226Z,36.77
2019-01-17T01:42:15.479Z,39.30
2019-01-17T01:45:02.101Z,36.97
2019-01-17T01:47:41.153Z,40.17
2019-01-17T01:50:11.460Z,40.77
2019-01-17T01:52:44.412Z,41.10
2019-01-17T01:55:13.110Z,39.83
2019-01-17T01:57:41.863Z,40.40
2019-01-17T02:00:11.634Z,40.30
2019-01-17T02:02:40.258Z,38.40
2019-01-17T02:05:09.006Z,39.10
2019-01-17T02:07:37.695Z,38.23
2019-01-17T02:10:09.660Z,40.43
2019-01-17T02:12:38.337Z,41.93
2019-01-17T02:15:07.011Z,38.73
2019-01-17T02:17:36.547Z,38.30
2019-01-17T02:20:08.251Z,44.37
2019-01-17T02:22:36.891Z,42.03
2019-01-17T02:25:07.550Z,52.70
2019-01-17T02:27:38.238Z,52.63
2019-01-17T02:30:10.347Z,51.30
2019-01-17T02:32:39.078Z,42.67
2019-01-17T02:35:08.056Z,46.50
2019-01-17T02:37:36.707Z,43.20
2019-01-17T02:40:08.584Z,44.47
2019-01-17T02:42:38.844Z,42.33
2019-01-17T02:45:10.526Z,42.13
2019-01-17T02:47:39.153Z,42.40
2019-01-17T02:50:09.638Z,43.53
2019-01-17T02:52:40.063Z,45.00
2019-01-17T02:55:10.577Z,45.63
2019-01-17T02:57:39.328Z,45.27
2019-01-17T03:00:16.032Z,44.83
2019-01-17T03:02:46.308Z,43.47
2019-01-17T03:05:14.998Z,44.40
2019-01-17T03:07:43.739Z,43.97
2019-01-17T03:10:15.317Z,42.77
2019-01-17T03:12:43.959Z,43.00
2019-01-17T03:15:12.613Z,43.53
2019-01-17T03:17:41.317Z,43.87
2019-01-17T03:20:11.909Z,46.27
2019-01-17T03:22:40.601Z,44.17
2019-01-17T03:25:10.808Z,43.97
2019-01-17T03:27:49.286Z,48.13
2019-01-17T03:30:18.238Z,48.63
2019-01-17T03:32:46.977Z,63.05
2019-01-17T03:35:17.202Z,53.23
2019-01-17T03:37:45.954Z,45.20
2019-01-17T03:40:15.692Z,46.33
2019-01-17T03:42:44.395Z,45.97
2019-01-17T03:45:14.029Z,44.93
2019-01-17T03:47:42.693Z,45.40
2019-01-17T03:50:13.240Z,43.03
2019-01-17T03:52:41.970Z,45.30
2019-01-17T03:55:13.456Z,45.47
2019-01-17T03:57:42.125Z,45.57
2019-01-17T04:00:13.989Z,43.13
2019-01-17T04:02:42.662Z,40.80
2019-01-17T04:05:11.330Z,45.07
2019-01-17T04:07:40.046Z,42.67
2019-01-17T04:10:12.016Z,45.57
2019-01-17T04:12:40.702Z,50.00
2019-01-17T04:15:10.735Z,46.47
2019-01-17T04:17:39.400Z,45.43
2019-01-17T04:20:10.941Z,47.20
2019-01-17T04:22:39.690Z,45.10
2019-01-17T04:25:09.522Z,42.43
2019-01-17T04:27:38.246Z,45.60
2019-01-17T04:30:15.857Z,54.57
2019-01-17T04:32:44.581Z,51.97
2019-01-17T04:35:16.074Z,53.63
2019-01-17T04:37:44.784Z,49.23
2019-01-17T04:40:15.539Z,49.57
2019-01-17T04:42:45.654Z,53.87
2019-01-17T04:45:14.669Z,52.47
2019-01-17T04:47:43.338Z,51.13
2019-01-17T04:50:13.990Z,57.43
2019-01-17T04:52:42.708Z,52.77
2019-01-17T04:55:12.838Z,50.67
2019-01-17T04:57:41.574Z,53.80
2019-01-17T05:00:13.445Z,52.03
2019-01-17T05:02:42.129Z,52.60
2019-01-17T05:05:10.870Z,54.03
2019-01-17T05:07:39.773Z,53.00
2019-01-17T05:10:10.971Z,55.13
2019-01-17T05:12:39.702Z,56.77
2019-01-17T05:15:09.092Z,60.40
2019-01-17T05:17:41.417Z,59.50
2019-01-17T05:20:15.006Z,77.53
2019-01-17T05:22:43.674Z,61.23
2019-01-17T05:25:13.026Z,58.43
2019-01-17T05:27:41.823Z,61.50
2019-01-17T05:30:13.208Z,64.50
2019-01-17T05:32:41.932Z,65.13
2019-01-17T05:35:10.864Z,61.90
2019-01-17T05:37:39.540Z,56.97
2019-01-17T05:40:13.784Z,55.03
2019-01-17T05:42:42.461Z,52.07
2019-01-17T05:45:12.806Z,55.60
2019-01-17T05:47:41.581Z,55.20
2019-01-17T05:50:12.902Z,52.87
2019-01-17T05:52:41.579Z,80.62
2019-01-17T05:55:10.271Z,60.03
2019-01-17T05:57:39.030Z,52.47
2019-01-17T06:00:13.584Z,51.83
2019-01-17T06:02:42.289Z,52.47
2019-01-17T06:05:11.181Z,48.70
2019-01-17T06:07:39.891Z,49.60
2019-01-17T06:10:10.810Z,52.77
2019-01-17T06:12:39.562Z,56.03
2019-01-17T06:15:11.129Z,53.83
2019-01-17T06:17:39.764Z,47.67
2019-01-17T06:20:12.044Z,50.97
2019-01-17T06:22:40.931Z,53.50
2019-01-17T06:25:09.685Z,52.40
2019-01-17T06:27:38.404Z,41.90
2019-01-17T06:30:10.224Z,40.57
2019-01-17T06:32:38.926Z,46.50
2019-01-17T06:35:08.942Z,48.77
2019-01-17T06:37:37.634Z,47.47
2019-01-17T06:40:14.328Z,47.67
2019-01-17T06:42:43.017Z,49.47
2019-01-17T06:45:11.665Z,52.77
2019-01-17T06:47:40.541Z,52.10
2019-01-17T06:50:10.680Z,49.33
2019-01-17T06:52:39.334Z,51.70
2019-01-17T06:55:09.596Z,46.73
2019-01-17T06:57:40.094Z,47.00
2019-01-17T07:00:16.482Z,51.67
2019-01-17T07:02:45.144Z,74.85
2019-01-17T07:05:16.279Z,54.10
2019-01-17T07:07:44.953Z,51.87
2019-01-17T07:10:16.300Z,54.93
2019-01-17T07:12:46.222Z,54.37
2019-01-17T07:15:15.000Z,52.17
2019-01-17T07:17:43.759Z,54.67
2019-01-17T07:20:16.326Z,55.67
2019-01-17T07:22:47.991Z,57.87
2019-01-17T07:25:17.795Z,81.77
2019-01-17T07:27:46.576Z,77.80
2019-01-17T07:30:21.415Z,74.87
2019-01-17T07:32:50.189Z,73.47
2019-01-17T07:35:18.872Z,74.53
2019-01-17T07:37:47.642Z,78.30
2019-01-17T07:40:16.950Z,73.03
2019-01-17T07:42:45.625Z,78.13
2019-01-17T07:45:17.244Z,77.20
2019-01-17T07:48:22.040Z,70.80
2019-01-17T07:50:52.477Z,65.97
2019-01-17T07:53:21.160Z,67.47
2019-01-17T07:55:52.813Z,67.17
2019-01-17T07:58:23.182Z,63.50
2019-01-17T08:00:51.902Z,58.13
2019-01-17T08:03:20.558Z,62.40
2019-01-17T08:05:49.650Z,60.83
2019-01-17T08:08:18.318Z,76.40
2019-01-17T08:10:46.945Z,66.87
2019-01-17T08:13:15.841Z,61.10
2019-01-17T08:15:44.532Z,58.73
2019-01-17T08:18:18.662Z,57.83
2019-01-17T08:20:43.526Z,58.80
2019-01-17T08:23:12.210Z,56.17
2019-01-17T08:25:40.907Z,56.67
2019-01-17T08:28:09.685Z,56.17
2019-01-17T08:30:38.384Z,55.87
2019-01-17T08:33:07.101Z,55.77
2019-01-17T08:35:35.884Z,56.23
2019-01-17T08:38:07.408Z,54.07
2019-01-17T08:40:36.079Z,51.53
2019-01-17T08:43:04.934Z,47.87
2019-01-17T08:45:33.656Z,45.83
2019-01-17T08:48:02.524Z,47.83
2019-01-17T08:50:31.283Z,51.73
2019-01-17T08:52:59.971Z,50.73
2019-01-17T08:55:28.664Z,52.40
2019-01-17T08:57:57.388Z,51.40
2019-01-17T09:00:26.667Z,49.13
2019-01-17T09:02:55.393Z,38.37
2019-01-17T09:05:24.106Z,36.50
2019-01-17T09:07:52.730Z,35.97
2019-01-17T09:10:26.379Z,36.63
2019-01-17T09:12:57.371Z,45.60
2019-01-17T09:15:28.880Z,35.33
2019-01-17T09:17:57.535Z,37.83
2019-01-17T09:20:26.239Z,34.07
2019-01-17T09:22:54.916Z,33.03
2019-01-17T09:25:25.157Z,32.10
2019-01-17T09:27:53.919Z,32.30
2019-01-17T09:30:22.759Z,32.87
2019-01-17T09:32:51.383Z,32.03
2019-01-17T09:35:20.108Z,32.17
2019-01-17T09:37:48.812Z,31.77
2019-01-17T09:40:21.717Z,32.23
2019-01-17T09:42:51.735Z,32.10
2019-01-17T09:45:20.393Z,32.87
2019-01-17T09:47:49.113Z,32.43
2019-01-17T09:50:22.765Z,31.60
2019-01-17T09:52:51.430Z,31.17
2019-01-17T09:55:20.080Z,31.67
2019-01-17T09:57:48.916Z,32.20
2019-01-17T10:00:20.061Z,32.80
2019-01-17T10:02:48.746Z,32.67
2019-01-17T10:05:20.630Z,31.13
2019-01-17T10:07:49.327Z,32.43
2019-01-17T10:10:19.976Z,32.87
2019-01-17T10:12:48.719Z,31.77
2019-01-17T10:15:27.507Z,29.63
2019-01-17T10:18:17.139Z,29.13
2019-01-17T10:21:08.193Z,31.17
2019-01-17T10:23:46.115Z,30.40
2019-01-17T10:26:35.778Z,42.15
2019-01-17T10:29:25.554Z,34.40
2019-01-17T10:32:00.072Z,32.47
2019-01-17T10:34:57.492Z,33.00
2019-01-17T10:37:45.709Z,33.50
2019-01-17T10:40:32.294Z,31.30
2019-01-17T10:43:38.281Z,30.87
2019-01-17T10:46:43.194Z,29.13
2019-01-17T10:49:17.952Z,31.03
2019-01-17T10:51:52.965Z,31.37
2019-01-17T10:54:27.409Z,31.87
2019-01-17T10:57:07.944Z,30.90
2019-01-17T10:59:42.659Z,31.00
2019-01-17T11:02:32.300Z,29.20
2019-01-17T11:05:07.073Z,30.87
2019-01-17T11:07:47.683Z,32.27
2019-01-17T11:10:40.516Z,33.70
2019-01-17T11:13:34.618Z,32.57
2019-01-17T11:16:13.363Z,35.30
2019-01-17T11:19:01.222Z,42.33
2019-01-17T11:21:44.752Z,35.97
2019-01-17T11:24:21.135Z,33.53
2019-01-17T11:27:32.602Z,34.37
2019-01-17T11:30:30.170Z,32.70
2019-01-17T11:33:02.182Z,29.03
2019-01-17T11:35:50.646Z,27.90
2019-01-17T11:38:34.124Z,26.43
2019-01-17T11:41:26.827Z,26.13
2019-01-17T11:44:01.368Z,27.93
2019-01-17T11:46:41.845Z,26.77
2019-01-17T11:49:22.448Z,27.03
2019-01-17T11:52:18.512Z,26.27
2019-01-17T11:55:04.826Z,26.13
2019-01-17T11:57:48.603Z,25.13
2019-01-17T12:00:30.808Z,23.67
2019-01-17T12:03:08.447Z,22.13
2019-01-17T12:05:37.144Z,22.80
2019-01-17T12:08:05.838Z,23.93
2019-01-17T12:10:34.582Z,24.17
2019-01-17T12:13:04.975Z,24.27
2019-01-17T12:15:33.754Z,25.73
2019-01-17T12:18:02.509Z,26.93
2019-01-17T12:20:31.149Z,24.50
2019-01-17T12:22:59.989Z,24.50
2019-01-17T12:25:28.745Z,26.90
2019-01-17T12:27:57.437Z,27.13
2019-01-17T12:30:26.328Z,27.17
2019-01-17T12:32:55.014Z,34.45
2019-01-17T12:35:25.231Z,30.23
2019-01-17T12:37:53.877Z,27.30
2019-01-17T12:40:24.182Z,25.90
2019-01-17T12:42:52.947Z,25.50
2019-01-17T12:45:23.329Z,24.17
2019-01-17T12:47:52.183Z,25.30
2019-01-17T12:50:20.845Z,25.60
2019-01-17T12:52:49.499Z,21.60
2019-01-17T12:55:19.899Z,20.47
2019-01-17T12:57:48.794Z,20.80
2019-01-17T13:00:18.835Z,19.93
2019-01-17T13:02:47.567Z,20.90
2019-01-17T13:05:16.292Z,20.93
2019-01-17T13:07:44.957Z,20.27
2019-01-17T13:10:22.708Z,20.17
2019-01-17T13:12:51.395Z,18.33
2019-01-17T13:15:20.191Z,21.00
2019-01-17T13:17:50.659Z,19.27
2019-01-17T13:20:19.304Z,23.57
2019-01-17T13:22:48.112Z,19.30
2019-01-17T13:25:19.033Z,18.27
2019-01-17T13:27:47.668Z,17.30
2019-01-17T13:30:19.432Z,19.97
2019-01-17T13:32:49.650Z,18.33
2019-01-17T13:35:18.447Z,19.20
2019-01-17T13:37:47.160Z,19.37
2019-01-17T13:40:20.728Z,20.43
2019-01-17T13:42:49.354Z,20.40
2019-01-17T13:45:19.554Z,21.33
2019-01-17T13:47:48.240Z,22.37
2019-01-17T13:50:18.627Z,23.07
2019-01-17T13:52:47.309Z,18.90
2019-01-17T13:55:17.293Z,20.07
2019-01-17T13:57:45.977Z,21.90
2019-01-17T14:00:17.555Z,22.17
2019-01-17T14:02:49.242Z,23.57
2019-01-17T14:05:20.401Z,23.33
2019-01-17T14:07:49.924Z,25.40
2019-01-17T14:10:20.275Z,27.37
2019-01-17T14:12:49.064Z,27.63
2019-01-17T14:15:29.130Z,27.07
2019-01-17T14:17:59.645Z,27.50
2019-01-17T14:20:28.367Z,27.77
2019-01-17T14:22:57.117Z,28.43
2019-01-17T14:25:25.750Z,26.27
2019-01-17T14:27:54.443Z,28.07
2019-01-17T14:30:27.324Z,25.37
2019-01-17T14:32:57.753Z,23.57
2019-01-17T14:41:26.688Z,23.97
2019-01-17T14:43:55.489Z,22.97
2019-01-17T14:46:24.088Z,22.80
2019-01-17T14:48:52.821Z,21.30
2019-01-17T14:51:21.474Z,21.23
2019-01-17T14:53:50.246Z,23.27
2019-01-17T14:56:18.936Z,21.90
2019-01-17T14:58:47.828Z,21.40
2019-01-17T15:01:16.675Z,22.33
2019-01-17T15:03:47.019Z,22.87
2019-01-17T15:06:15.684Z,29.12
2019-01-17T15:08:44.373Z,22.07
2019-01-17T15:11:27.657Z,19.33
2019-01-17T15:19:34.854Z,19.83
2019-01-17T15:19:46.188Z,20.73
2019-01-17T15:22:14.854Z,19.77
2019-01-17T15:24:43.602Z,19.07
2019-01-17T15:27:16.490Z,22.20
2019-01-17T15:29:45.191Z,20.10
2019-01-17T15:32:16.476Z,20.40
2019-01-17T15:34:45.170Z,20.40
2019-01-17T15:37:13.899Z,20.87
2019-01-17T15:39:42.662Z,24.77
2019-01-17T15:42:11.313Z,24.43
2019-01-17T15:44:40.104Z,23.37
2019-01-17T15:47:13.166Z,23.30
2019-01-17T15:49:41.089Z,24.97
2019-01-17T15:52:09.743Z,23.80
2019-01-17T15:54:42.436Z,25.70
2019-01-17T15:57:14.120Z,33.28
2019-01-17T15:59:44.399Z,27.13
2019-01-17T16:02:14.401Z,27.10
2019-01-17T16:04:43.101Z,24.63
2019-01-17T16:07:12.151Z,26.57
2019-01-17T16:09:49.430Z,22.90
2019-01-17T16:12:18.191Z,18.83
2019-01-17T16:15:22.658Z,18.57
2019-01-17T16:17:42.472Z,19.50
2019-01-17T16:20:42.432Z,18.40
2019-01-17T16:23:14.458Z,19.20
2019-01-17T16:25:44.836Z,18.73
2019-01-17T16:31:29.089Z,20.95
2019-01-17T16:33:59.533Z,20.40
2019-01-17T16:36:28.501Z,19.03
2019-01-17T16:38:58.820Z,16.70
2019-01-17T16:41:27.501Z,15.23
2019-01-17T16:43:58.676Z,14.17
2019-01-17T16:46:27.338Z,25.63
2019-01-17T16:48:56.027Z,14.70
2019-01-17T16:51:24.687Z,17.43
2019-01-17T16:53:53.417Z,17.13
2019-01-17T16:56:25.009Z,15.37
2019-01-17T16:59:00.916Z,15.30
2019-01-17T17:01:29.826Z,17.37
2019-01-17T17:03:59.098Z,21.60
2019-01-17T17:06:27.829Z,36.83
2019-01-17T17:08:56.982Z,17.53
2019-01-17T17:11:26.153Z,30.83
2019-01-17T17:14:05.065Z,16.03
2019-01-17T17:16:33.926Z,19.77
2019-01-17T17:19:03.436Z,14.07
2019-01-17T17:21:32.756Z,13.23
2019-01-17T17:24:03.718Z,14.27
2019-01-17T17:26:32.616Z,13.50
2019-01-17T17:29:01.452Z,17.63
2019-01-17T17:31:30.204Z,14.20
2019-01-17T17:33:58.865Z,13.20
2019-01-17T17:36:27.681Z,14.47
2019-01-17T17:38:59.600Z,12.63
2019-01-17T17:41:28.311Z,13.83
2019-01-17T17:43:57.282Z,13.53
2019-01-17T17:46:26.035Z,14.43
2019-01-17T17:48:54.790Z,15.60
2019-01-17T17:51:23.523Z,14.57
2019-01-17T17:53:52.795Z,16.93
2019-01-17T17:56:21.549Z,15.00
2019-01-17T17:58:54.957Z,16.63
2019-01-17T18:01:51.247Z,16.30
2019-01-17T18:04:27.436Z,17.63
2019-01-17T18:06:53.688Z,20.20
2019-01-17T18:09:30.015Z,20.40
2019-01-17T18:11:58.762Z,17.50
2019-01-17T18:14:31.119Z,23.00
2019-01-17T18:17:03.061Z,21.53
2019-01-17T18:19:40.689Z,23.70
2019-01-17T18:22:10.649Z,23.20
2019-01-17T18:24:39.352Z,21.33
2019-01-17T18:27:08.955Z,21.73
2019-01-17T18:29:39.376Z,19.00
2019-01-17T18:32:09.875Z,20.60
2019-01-17T19:35:51.134Z,13.13
2019-01-17T19:38:19.817Z,12.83
2019-01-17T19:40:50.051Z,8.83
2019-01-17T19:43:18.773Z,10.97
2019-01-17T19:45:47.440Z,10.67
2019-01-17T19:48:16.118Z,10.73
2019-01-17T19:50:45.024Z,12.10
2019-01-17T19:53:13.670Z,11.60
2019-01-17T19:55:42.332Z,11.80
2019-01-17T19:58:13.338Z,12.70
2019-01-17T20:00:41.994Z,10.77
2019-01-17T20:03:31.103Z,10.40
2019-01-17T20:05:59.935Z,10.60
2019-01-17T20:08:30.451Z,10.80
2019-01-17T20:11:00.753Z,12.30
2019-01-17T20:13:29.967Z,9.87
2019-01-17T20:16:02.292Z,10.70
2019-01-17T20:18:32.658Z,10.17
2019-01-17T20:21:21.371Z,9.50
2019-01-17T20:24:01.528Z,8.97
2019-01-17T20:26:34.719Z,10.00
2019-01-17T20:29:20.236Z,10.93
2019-01-17T20:31:55.341Z,10.73
2019-01-17T20:34:24.856Z,11.23
2019-01-17T20:36:56.577Z,10.47
2019-01-17T20:39:27.572Z,10.60
2019-01-17T20:41:58.495Z,10.00
2019-01-17T20:44:29.955Z,10.10
2019-01-17T20:47:00.672Z,10.40
2019-01-17T20:49:29.083Z,9.77
2019-01-17T20:51:57.794Z,11.53
2019-01-17T20:54:26.534Z,10.70
2019-01-17T20:56:55.850Z,10.47
2019-01-17T20:59:24.528Z,14.60
2019-01-17T21:02:05.388Z,11.27
2019-01-17T21:04:35.633Z,11.40
2019-01-17T21:10:16.016Z,10.87
2019-01-17T21:12:44.864Z,10.73
2019-01-17T21:15:14.460Z,10.37
2019-01-17T21:17:43.293Z,13.27
2019-01-17T21:20:12.928Z,13.57
2019-01-17T21:22:41.607Z,13.77
2019-01-17T21:25:13.133Z,12.90
2019-01-17T21:27:42.338Z,28.50
2019-01-17T21:30:14.043Z,15.93
2019-01-17T21:32:42.673Z,15.70
2019-01-17T21:35:12.073Z,12.33
2019-01-17T21:37:43.228Z,12.17
2019-01-17T21:40:14.813Z,12.90
2019-01-17T21:42:45.101Z,12.10
2019-01-17T21:45:18.270Z,12.73
2019-01-17T21:47:49.544Z,13.72
2019-01-17T21:50:29.708Z,13.50
2019-01-17T21:52:58.477Z,12.50
2019-01-17T21:55:27.226Z,14.23
2019-01-17T21:57:55.950Z,12.80
2019-01-17T22:00:29.020Z,12.37
2019-01-17T22:02:57.678Z,10.30
2019-01-17T22:05:26.453Z,11.73
2019-01-17T22:07:55.129Z,11.70
2019-01-17T22:10:26.774Z,12.13
2019-01-17T22:12:59.279Z,13.03
2019-01-17T22:15:31.129Z,10.90
2019-01-17T22:17:59.789Z,12.13
2019-01-17T22:20:28.563Z,12.93
2019-01-17T22:22:58.773Z,12.77
2019-01-17T22:25:27.462Z,12.07
2019-01-17T22:27:56.225Z,12.33
2019-01-17T22:30:27.450Z,13.20
2019-01-17T22:32:58.662Z,13.57
2019-01-17T22:35:27.348Z,12.97
2019-01-17T22:38:01.900Z,13.53
2019-01-17T22:40:30.558Z,13.90
2019-01-17T22:43:02.176Z,12.80
2019-01-17T22:45:32.456Z,12.03
2019-01-17T22:48:01.132Z,12.70
2019-01-17T22:50:32.788Z,12.83
2019-01-17T22:53:01.560Z,12.73
2019-01-17T22:55:30.331Z,13.13
2019-01-17T22:57:59.005Z,13.67
2019-01-17T23:00:32.404Z,13.47
2019-01-17T23:03:01.105Z,12.20
2019-01-17T23:05:29.816Z,13.57
2019-01-17T23:08:00.088Z,11.70
2019-01-17T23:10:28.732Z,12.77
2019-01-17T23:12:57.751Z,14.60
2019-01-17T23:15:26.519Z,12.47
2019-01-17T23:17:55.296Z,14.47
2019-01-17T23:20:23.935Z,14.23
2019-01-17T23:22:55.711Z,14.43
2019-01-17T23:25:24.168Z,13.80
2019-01-17T23:27:53.167Z,14.03
2019-01-17T23:30:21.872Z,14.40
2019-01-17T23:32:50.536Z,13.00
2019-01-17T23:35:19.241Z,13.77
2019-01-17T23:37:47.995Z,13.93
2019-01-17T23:40:16.638Z,19.00
2019-01-17T23:42:46.844Z,15.60
2019-01-17T23:45:15.549Z,14.00
2019-01-17T23:47:44.223Z,14.60
2019-01-17T23:50:13.226Z,14.13
2019-01-17T23:52:41.945Z,13.03
2019-01-17T23:55:10.601Z,11.57
2019-01-17T23:57:39.260Z,13.97
